YNY weather

Yangyang International Airport
Gonghang-ro, Gang'weondo, South Korea

Public forecast

Using degrees Celsius for public forecast. Weather courtesy of forecast.io.

METAR (pilot weather report)

Retrieved 2019/03/25 16:00 UTC (12 minutes ago):

RKNY 251600Z AUTO 28009KT 220V330 6000 NCD 11/00 Q1013

TAF (pilot weather forecast)

Forecast is more than 12 hours old.

Retrieved 2019/03/14 00:30 UTC (12 days ago):

TAF COR TAF COR RKNY 140028Z 1400/1506 23010KT CAVOK TX12/1405Z TN03/1421Z TX11/1504Z BECMG 1410/1411 26008KT 4200 BR BKN030 OVC120 BECMG 1500/1501 02007KT 6000 NSW SCT010 BKN030 OVC100